Time;durP1;ratioP1;P1;durP2;ratioP2;P2;SDS_P1;SDS_P2;PMS_P1;PMS_P2;Temp;Humidity;BMP_temperature;BMP_pressure;BME280_temperature;BME280_humidity;BME280_pressure;Samples;Min_cycle;Max_cycle;Signal;HPM_P1;HPM_P2
2021/03/10 06:01:30;;;;;;;;;;;;;;;-0.49;81.42;97853.97;1832181;78;20528;-62
2021/03/10 06:04:00;;;;;;;;;;;;;;;-0.49;81.30;97860.42;1807493;79;20999;-62
2021/03/10 06:06:41;;;;;;;;;;;;;;;-0.43;81.12;97859.73;1807548;79;21876;-59
2021/03/10 06:09:17;;;;;;;;;;;;;;;-0.40;80.82;97864.08;1810778;77;20465;-61
2021/03/10 06:12:00;;;;;;;;;;;;;;;-0.38;80.71;97865.20;1813672;77;20485;-61
2021/03/10 06:14:29;;;;;;;;;;;;;;;-0.35;80.51;97860.97;1794661;79;20623;-60
2021/03/10 06:17:14;;;;;;;;;;;;;;;-0.32;80.47;97859.34;1796808;79;20613;-62
2021/03/10 06:19:51;;;;;;;;;;;;;;;-0.29;80.27;97867.24;1812251;77;21946;-62
2021/03/10 06:22:20;;;;;;;;;;;;;;;-0.28;80.17;97861.88;1785845;79;20383;-63
2021/03/10 06:24:54;;;;;;;;;;;;;;;-0.22;79.76;97868.95;1752326;80;20498;-68
2021/03/10 06:27:22;;;;;;;;;;;;;;;-0.20;79.78;97879.90;1725274;80;20531;-64
2021/03/10 06:29:57;;;;;;;;;;;;;;;-0.13;79.76;97873.55;1756663;80;20599;-68
2021/03/10 06:32:25;;;;;;;;;;;;;;;-0.08;79.36;97877.73;1756375;78;20685;-68
2021/03/10 06:34:54;;;;;;;;;;;;;;;-0.04;78.93;97873.31;1754983;80;20490;-71
2021/03/10 06:37:29;;;;;;;;;;;;;;;0.04;78.73;97880.69;1750967;78;20418;-64
2021/03/10 06:40:12;;;;;;;;;;;;;;;0.09;78.45;97880.95;1758054;78;20587;-64
2021/03/10 06:42:40;;;;;;;;;;;;;;;0.13;78.50;97877.86;1756686;78;20686;-64
2021/03/10 06:45:09;;;;;;;;;;;;;;;0.22;77.80;97875.98;1754901;78;21658;-61
2021/03/10 06:47:52;;;;;;;;;;;;;;;0.23;77.77;97882.77;1749757;80;20509;-64
2021/03/10 06:50:20;;;;;;;;;;;;;;;0.24;78.10;97885.17;1768963;79;20477;-63
2021/03/10 06:52:51;;;;;;;;;;;;;;;0.29;78.09;97884.15;1747054;78;20602;-63
2021/03/10 06:55:19;;;;;;;;;;;;;;;0.32;77.85;97892.05;1735690;81;20690;-66
2021/03/10 06:57:47;;;;;;;;;;;;;;;0.36;77.79;97891.52;1753205;80;21908;-65
2021/03/10 07:00:24;;;;;;;;;;;;;;;0.46;77.62;97893.05;1752853;81;20560;-66
2021/03/10 07:02:52;;;;;;;;;;;;;;;0.54;77.28;97891.19;1752660;80;20567;-63
2021/03/10 07:05:20;;;;;;;;;;;;;;;0.59;77.26;97897.11;1752007;80;20512;-67
2021/03/10 07:07:48;;;;;;;;;;;;;;;0.60;77.25;97899.52;1746897;80;20597;-64
2021/03/10 07:10:20;;;;;;;;;;;;;;;0.64;77.02;97898.20;1741779;80;20279;-66
2021/03/10 07:12:48;;;;;;;;;;;;;;;0.68;76.80;97901.22;1745937;80;20592;-64
2021/03/10 07:15:17;;;;;;;;;;;;;;;0.74;76.51;97896.63;1748506;81;20401;-65
2021/03/10 07:17:46;;;;;;;;;;;;;;;0.79;76.27;97896.91;1750107;81;20497;-67
2021/03/10 07:20:15;;;;;;;;;;;;;;;0.82;76.11;97897.83;1748102;81;21006;-62
2021/03/10 07:22:57;;;;;;;;;;;;;;;0.84;75.80;97895.88;1753403;81;21903;-64
2021/03/10 07:25:31;;;;;;;;;;;;;;;0.85;75.94;97894.09;1750002;81;20484;-64
2021/03/10 07:28:06;;;;;;;;;;;;;;;0.93;75.81;97896.59;1746604;81;20394;-67
2021/03/10 07:30:39;;;;;;;;;;;;;;;1.02;75.57;97901.47;1743648;81;20488;-66
2021/03/10 07:33:14;;;;;;;;;;;;;;;1.07;75.16;97900.94;1738966;80;20547;-62
2021/03/10 07:35:51;;;;;;;;;;;;;;;1.09;74.67;97901.55;1761499;79;21899;-65
2021/03/10 07:38:20;;;;;;;;;;;;;;;1.05;74.45;97905.48;1737394;80;20603;-62
2021/03/10 07:40:57;;;;;;;;;;;;;;;1.04;74.30;97900.80;1742169;80;20440;-60
2021/03/10 07:43:46;;;;;;;;;;;;;;;1.03;74.19;97906.95;1723916;81;20524;-62
2021/03/10 07:46:26;;;;;;;;;;;;;;;1.04;74.65;97905.17;1740773;80;20784;-67
2021/03/10 07:48:55;;;;;;;;;;;;;;;1.09;74.97;97906.72;1759786;79;22079;-62
2021/03/10 07:51:32;;;;;;;;;;;;;;;1.14;74.58;97901.33;1738129;80;20564;-65
2021/03/10 07:54:00;;;;;;;;;;;;;;;1.14;74.92;97900.04;1729485;80;20298;-62
2021/03/10 07:56:30;;;;;;;;;;;;;;;1.14;74.24;97897.45;1731878;80;20611;-64
2021/03/10 07:59:11;;;;;;;;;;;;;;;1.14;74.59;97896.16;1735167;80;20482;-64
2021/03/10 08:01:39;;;;;;;;;;;;;;;1.18;74.82;97896.58;1722678;81;21695;-70
2021/03/10 08:04:14;;;;;;;;;;;;;;;1.31;74.45;97888.16;1766082;79;20565;-66
2021/03/10 08:06:49;;;;;;;;;;;;;;;1.38;74.01;97883.85;1709806;83;20538;-66
2021/03/10 08:09:18;;;;;;;;;;;;;;;1.46;73.66;97889.73;1755160;80;20494;-67
2021/03/10 08:11:47;;;;;;;;;;;;;;;1.53;73.37;97889.79;1715180;81;21002;-61
2021/03/10 08:14:16;;;;;;;;;;;;;;;1.58;73.31;97887.97;1738323;80;21906;-63
2021/03/10 08:16:48;;;;;;;;;;;;;;;1.63;72.88;97894.68;1746412;80;20647;-63
2021/03/10 08:19:20;;;;;;;;;;;;;;;1.63;72.24;97888.20;1751128;80;20477;-69
2021/03/10 08:21:51;;;;;;;;;;;;;;;1.62;72.73;97887.89;1748337;80;21072;-62
2021/03/10 08:24:22;;;;;;;;;;;;;;;1.66;72.87;97885.26;1747216;80;20636;-60
2021/03/10 08:26:51;;;;;;;;;;;;;;;1.71;72.84;97887.59;1749887;79;21968;-66
2021/03/10 08:29:19;;;;;;;;;;;;;;;1.75;72.53;97887.52;1745031;80;20584;-63
2021/03/10 08:31:53;;;;;;;;;;;;;;;1.77;72.35;97889.44;1745777;80;20597;-65
2021/03/10 08:34:38;;;;;;;;;;;;;;;1.76;72.30;97883.95;1742563;80;20585;-63
2021/03/10 08:37:08;;;;;;;;;;;;;;;1.79;72.54;97887.97;1747642;79;20613;-66
2021/03/10 08:39:44;;;;;;;;;;;;;;;1.83;71.65;97874.94;1748513;81;21990;-66
2021/03/10 08:42:20;;;;;;;;;;;;;;;1.90;71.51;97883.57;1748864;80;20202;-61
2021/03/10 08:44:49;;;;;;;;;;;;;;;1.95;71.32;97883.80;1748804;80;20512;-63
2021/03/10 08:47:19;;;;;;;;;;;;;;;2.00;71.21;97879.38;1744983;79;20496;-61
2021/03/10 08:49:51;;;;;;;;;;;;;;;2.02;70.87;97878.18;1749204;80;20808;-64
2021/03/10 08:52:21;;;;;;;;;;;;;;;2.08;70.59;97875.36;1750133;80;22068;-64
2021/03/10 08:54:59;;;;;;;;;;;;;;;2.09;70.84;97875.14;1746740;80;20479;-64
2021/03/10 08:57:29;;;;;;;;;;;;;;;2.12;70.77;97872.68;1749418;79;20397;-66
2021/03/10 08:59:57;;;;;;;;;;;;;;;2.12;70.37;97876.08;1749522;81;20532;-66
2021/03/10 09:02:31;;;;;;;;;;;;;;;2.06;70.70;97880.72;1746939;81;20545;-65
2021/03/10 09:05:02;;;;;;;;;;;;;;;2.08;70.60;97878.75;1747087;81;22106;-67
2021/03/10 09:07:30;;;;;;;;;;;;;;;2.13;70.32;97884.16;1743781;80;20538;-68
2021/03/10 09:09:59;;;;;;;;;;;;;;;2.14;69.65;97888.86;1754163;80;20320;-66
2021/03/10 09:12:28;;;;;;;;;;;;;;;2.09;69.61;97886.81;1747285;80;20610;-66
2021/03/10 09:14:57;;;;;;;;;;;;;;;2.07;69.84;97886.22;1745136;79;20772;-68
2021/03/10 09:17:36;;;;;;;;;;;;;;;2.05;70.05;97886.89;1748963;80;21244;-66
2021/03/10 09:20:07;;;;;;;;;;;;;;;2.01;70.19;97885.67;1752052;81;20482;-66
2021/03/10 09:22:43;;;;;;;;;;;;;;;1.96;70.42;97887.51;1750342;79;20579;-63
2021/03/10 09:25:16;;;;;;;;;;;;;;;1.95;70.74;97885.91;1746629;80;20344;-67
2021/03/10 09:27:48;;;;;;;;;;;;;;;2.00;70.63;97887.15;1750035;80;20413;-68
2021/03/10 09:30:29;;;;;;;;;;;;;;;2.05;70.34;97882.20;1749410;80;22540;-69
2021/03/10 09:32:57;;;;;;;;;;;;;;;2.10;70.47;97890.20;1742892;80;20471;-69
2021/03/10 09:35:34;;;;;;;;;;;;;;;2.12;69.99;97884.34;1749725;80;20516;-64
2021/03/10 09:38:05;;;;;;;;;;;;;;;2.15;70.16;97883.49;1746924;80;20220;-66
2021/03/10 09:40:44;;;;;;;;;;;;;;;2.18;70.04;97879.70;1749789;80;20856;-65
2021/03/10 09:43:17;;;;;;;;;;;;;;;2.15;69.99;97887.38;1749582;79;21882;-66
2021/03/10 09:45:45;;;;;;;;;;;;;;;2.17;70.39;97886.67;1747659;80;20569;-64
2021/03/10 09:48:19;;;;;;;;;;;;;;;2.23;70.30;97883.85;1752559;79;20480;-66
2021/03/10 09:50:49;;;;;;;;;;;;;;;2.28;69.64;97886.67;1748727;79;20319;-65
2021/03/10 09:53:26;;;;;;;;;;;;;;;2.26;69.73;97886.86;1754524;80;20499;-66
2021/03/10 09:56:06;;;;;;;;;;;;;;;2.23;69.78;97890.34;1754188;79;22100;-67
2021/03/10 09:58:57;;;;;;;;;;;;;;;2.27;69.71;97891.55;1751380;80;20593;-63
2021/03/10 10:01:46;;;;;;;;;;;;;;;2.34;69.99;97894.99;1751909;79;20177;-62
2021/03/10 10:04:19;;;;;;;;;;;;;;;2.44;70.09;97894.67;1751436;81;20488;-65
2021/03/10 10:06:51;;;;;;;;;;;;;;;2.53;69.91;97892.21;1723525;81;20542;-65
2021/03/10 10:09:21;;;;;;;;;;;;;;;2.53;69.67;97896.11;1750421;79;22026;-61
2021/03/10 10:11:50;;;;;;;;;;;;;;;2.54;70.17;97905.00;1750701;80;20608;-63
2021/03/10 10:14:19;;;;;;;;;;;;;;;2.62;70.09;97904.86;1737290;81;20507;-64
2021/03/10 10:16:47;;;;;;;;;;;;;;;2.70;70.02;97909.09;1750788;81;20577;-63
2021/03/10 10:19:17;;;;;;;;;;;;;;;2.75;69.76;97898.94;1752925;81;20791;-63
2021/03/10 10:21:48;;;;;;;;;;;;;;;2.77;69.59;97899.55;1755618;80;21914;-64
2021/03/10 10:24:17;;;;;;;;;;;;;;;2.71;69.15;97899.03;1753397;79;20544;-73
2021/03/10 10:26:45;;;;;;;;;;;;;;;2.61;69.99;97903.74;1750893;81;20557;-65
2021/03/10 10:29:15;;;;;;;;;;;;;;;2.61;70.62;97908.93;1751714;81;20647;-65
2021/03/10 10:31:45;;;;;;;;;;;;;;;2.62;71.07;97910.53;1754724;81;20600;-62
2021/03/10 10:34:13;;;;;;;;;;;;;;;2.65;70.40;97908.38;1751617;80;22119;-62
2021/03/10 10:36:43;;;;;;;;;;;;;;;2.68;70.48;97917.06;1753225;79;20397;-68
2021/03/10 10:39:13;;;;;;;;;;;;;;;2.65;70.44;97914.06;1752427;80;20601;-67
2021/03/10 10:41:41;;;;;;;;;;;;;;;2.58;70.66;97910.13;1755430;81;20738;-63
2021/03/10 10:44:09;;;;;;;;;;;;;;;2.53;70.67;97909.88;1756417;80;20501;-63
2021/03/10 10:46:39;;;;;;;;;;;;;;;2.48;70.35;97908.36;1754106;81;21907;-66
2021/03/10 10:49:07;;;;;;;;;;;;;;;2.43;70.92;97909.92;1753051;81;20562;-63
2021/03/10 10:51:36;;;;;;;;;;;;;;;2.42;71.40;97917.39;1754298;79;20576;-65
2021/03/10 10:54:07;;;;;;;;;;;;;;;2.44;71.32;97915.42;1760864;79;20482;-69
2021/03/10 10:56:36;;;;;;;;;;;;;;;2.48;71.90;97912.25;1770879;79;20599;-66
2021/03/10 10:59:07;;;;;;;;;;;;;;;2.61;72.08;97910.23;1762388;79;20757;-67
2021/03/10 11:01:37;;;;;;;;;;;;;;;2.84;71.49;97900.89;1761250;79;20537;-62
2021/03/10 11:04:07;;;;;;;;;;;;;;;2.97;70.70;97903.05;1767444;80;20404;-63
2021/03/10 11:06:35;;;;;;;;;;;;;;;3.10;70.87;97895.81;1734548;79;20502;-68
2021/03/10 11:09:04;;;;;;;;;;;;;;;3.27;70.34;97899.69;1766560;79;20735;-65
2021/03/10 11:11:32;;;;;;;;;;;;;;;3.48;70.48;97903.95;1767655;80;21892;-67
2021/03/10 11:14:02;;;;;;;;;;;;;;;3.70;70.61;97904.10;1763670;79;20499;-65
2021/03/10 11:16:32;;;;;;;;;;;;;;;3.80;68.02;97898.53;1762824;79;20581;-63
2021/03/10 11:19:05;;;;;;;;;;;;;;;3.74;67.23;97892.83;1765461;79;20586;-67
2021/03/10 11:21:34;;;;;;;;;;;;;;;3.65;67.37;97893.50;1762081;79;20694;-62
2021/03/10 11:24:05;;;;;;;;;;;;;;;3.66;66.69;97891.21;1754003;79;21390;-60
2021/03/10 11:26:33;;;;;;;;;;;;;;;3.66;66.65;97890.41;1742982;79;20605;-60
2021/03/10 11:29:01;;;;;;;;;;;;;;;3.67;66.39;97878.52;1755576;79;20500;-61
2021/03/10 11:31:30;;;;;;;;;;;;;;;3.61;66.59;97881.88;1754839;79;20496;-61
2021/03/10 11:33:58;;;;;;;;;;;;;;;3.53;66.81;97879.47;1747990;79;20753;-64
2021/03/10 11:36:26;;;;;;;;;;;;;;;3.48;66.86;97879.26;1747354;79;22047;-60
2021/03/10 11:38:56;;;;;;;;;;;;;;;3.48;67.08;97872.77;1726891;79;20631;-61
2021/03/10 11:41:24;;;;;;;;;;;;;;;3.47;66.05;97877.16;1754559;79;20486;-61
2021/03/10 11:43:54;;;;;;;;;;;;;;;3.39;65.49;97871.33;1747811;79;20594;-62
2021/03/10 11:46:21;;;;;;;;;;;;;;;3.29;65.69;97873.52;1749039;79;20802;-60
2021/03/10 11:48:49;;;;;;;;;;;;;;;3.21;66.13;97871.09;1769693;79;21942;-60
2021/03/10 11:51:18;;;;;;;;;;;;;;;3.13;66.28;97871.56;1731206;81;20630;-59
2021/03/10 11:53:45;;;;;;;;;;;;;;;3.12;66.86;97876.45;1745707;79;20943;-59
2021/03/10 11:56:14;;;;;;;;;;;;;;;3.10;66.78;97874.54;1757365;79;20484;-61
2021/03/10 11:58:42;;;;;;;;;;;;;;;3.07;66.88;97877.55;1762231;79;20593;-67
2021/03/10 12:01:11;;;;;;;;;;;;;;;3.10;66.86;97869.34;1733048;80;21716;-70
2021/03/10 12:03:43;;;;;;;;;;;;;;;3.18;66.32;97868.88;1712925;81;20224;-70
2021/03/10 12:06:13;;;;;;;;;;;;;;;3.24;66.60;97873.31;1740414;81;20577;-66
2021/03/10 12:08:41;;;;;;;;;;;;;;;3.20;66.42;97874.19;1749710;79;20410;-66
2021/03/10 12:11:08;;;;;;;;;;;;;;;3.20;65.86;97870.29;1743087;79;20885;-66
2021/03/10 12:13:36;;;;;;;;;;;;;;;3.22;66.08;97869.61;1732813;81;22329;-66
2021/03/10 12:16:05;;;;;;;;;;;;;;;3.27;66.19;97871.11;1744795;79;20448;-69
2021/03/10 12:18:37;;;;;;;;;;;;;;;3.29;66.47;97867.03;1764227;79;20421;-64
2021/03/10 12:21:07;;;;;;;;;;;;;;;3.24;66.65;97865.03;1754799;79;20606;-65
2021/03/10 12:23:35;;;;;;;;;;;;;;;3.17;67.02;97865.47;1754948;79;20880;-60
2021/03/10 12:26:05;;;;;;;;;;;;;;;3.09;67.11;97866.47;1759233;79;21922;-64
2021/03/10 12:28:34;;;;;;;;;;;;;;;2.97;67.14;97868.50;1752035;79;20432;-66
2021/03/10 12:31:02;;;;;;;;;;;;;;;2.86;67.57;97873.76;1758100;79;20496;-67
2021/03/10 12:33:31;;;;;;;;;;;;;;;2.75;68.04;97869.09;1754253;80;20492;-68
2021/03/10 12:36:00;;;;;;;;;;;;;;;2.68;68.15;97874.25;1712943;81;20439;-62
2021/03/10 12:38:29;;;;;;;;;;;;;;;2.64;68.14;97865.26;1757467;81;21946;-67
2021/03/10 12:40:57;;;;;;;;;;;;;;;2.63;68.34;97870.63;1750960;80;20203;-65
2021/03/10 12:43:27;;;;;;;;;;;;;;;2.56;68.69;97869.30;1754254;80;20583;-64
2021/03/10 12:45:55;;;;;;;;;;;;;;;2.52;68.73;97873.25;1746935;79;20711;-62
2021/03/10 12:48:23;;;;;;;;;;;;;;;2.48;69.02;97881.61;1752389;80;20628;-63
2021/03/10 12:50:51;;;;;;;;;;;;;;;2.45;68.89;97874.23;1743677;80;22049;-65
2021/03/10 12:53:19;;;;;;;;;;;;;;;2.41;68.92;97872.50;1739117;80;20493;-67
2021/03/10 12:55:47;;;;;;;;;;;;;;;2.39;69.25;97874.96;1747047;80;20480;-64
2021/03/10 12:58:15;;;;;;;;;;;;;;;2.34;69.32;97877.64;1733992;81;20493;-64
2021/03/10 13:00:45;;;;;;;;;;;;;;;2.32;69.69;97869.23;1731369;80;20597;-66
2021/03/10 13:03:13;;;;;;;;;;;;;;;2.31;70.14;97867.63;1738881;80;21783;-64
2021/03/10 13:05:41;;;;;;;;;;;;;;;2.33;70.73;97868.75;1741874;80;20520;-65
2021/03/10 13:08:09;;;;;;;;;;;;;;;2.31;70.31;97867.63;1723818;81;20674;-63
2021/03/10 13:10:39;;;;;;;;;;;;;;;2.29;70.89;97869.63;1738933;81;20345;-65
2021/03/10 13:13:09;;;;;;;;;;;;;;;2.31;70.97;97871.52;1735283;80;20587;-63
2021/03/10 13:15:37;;;;;;;;;;;;;;;2.33;70.60;97871.34;1728112;80;21939;-67
2021/03/10 13:18:05;;;;;;;;;;;;;;;2.35;70.97;97876.66;1739545;81;20682;-62
2021/03/10 13:20:35;;;;;;;;;;;;;;;2.37;70.91;97882.95;1750642;78;20301;-64
2021/03/10 13:23:03;;;;;;;;;;;;;;;2.33;70.98;97879.12;1765043;79;20564;-65
2021/03/10 13:25:32;;;;;;;;;;;;;;;2.31;71.35;97878.00;1739760;81;20513;-63
2021/03/10 13:28:00;;;;;;;;;;;;;;;2.26;71.24;97882.97;1720677;80;22222;-65
2021/03/10 13:30:28;;;;;;;;;;;;;;;2.20;71.60;97885.02;1738511;81;20580;-67
2021/03/10 13:32:56;;;;;;;;;;;;;;;2.16;72.03;97888.19;1753378;81;20401;-65
2021/03/10 13:35:25;;;;;;;;;;;;;;;2.14;72.28;97886.27;1749989;80;20477;-66
2021/03/10 13:37:53;;;;;;;;;;;;;;;2.08;72.43;97883.94;1755135;81;20623;-60
2021/03/10 13:40:21;;;;;;;;;;;;;;;2.04;73.00;97884.48;1751856;81;21908;-63
2021/03/10 13:42:49;;;;;;;;;;;;;;;2.03;73.01;97894.05;1741446;81;20610;-63
2021/03/10 13:45:18;;;;;;;;;;;;;;;2.02;73.12;97891.14;1748166;81;20568;-66
2021/03/10 13:47:46;;;;;;;;;;;;;;;2.02;73.58;97890.37;1743156;80;21389;-66
2021/03/10 13:50:15;;;;;;;;;;;;;;;2.03;73.84;97893.23;1742430;80;20679;-62
2021/03/10 13:52:43;;;;;;;;;;;;;;;2.02;74.30;97889.84;1756826;79;22058;-65
2021/03/10 13:55:12;;;;;;;;;;;;;;;1.99;74.16;97891.53;1749049;80;20558;-66
2021/03/10 13:57:39;;;;;;;;;;;;;;;1.99;74.53;97896.71;1742253;81;20497;-67
2021/03/10 14:00:08;;;;;;;;;;;;;;;2.02;75.12;97897.63;1749868;81;20525;-66
2021/03/10 14:02:37;;;;;;;;;;;;;;;2.03;75.40;97897.93;1776195;80;20629;-65
2021/03/10 14:05:06;;;;;;;;;;;;;;;2.02;75.51;97895.03;1735179;81;20681;-65
2021/03/10 14:07:34;;;;;;;;;;;;;;;2.04;75.88;97896.14;1743899;81;20694;-69
2021/03/10 14:10:03;;;;;;;;;;;;;;;2.03;75.76;97897.93;1747110;81;20489;-69
2021/03/10 14:12:32;;;;;;;;;;;;;;;2.03;76.27;97903.11;1736157;80;20872;-66
2021/03/10 14:15:00;;;;;;;;;;;;;;;2.02;76.13;97900.21;1776534;79;20582;-68
2021/03/10 14:17:28;;;;;;;;;;;;;;;2.03;76.73;97900.52;1768592;79;22186;-66
2021/03/10 14:19:57;;;;;;;;;;;;;;;2.02;77.40;97908.51;1764013;79;20576;-65
2021/03/10 14:22:25;;;;;;;;;;;;;;;2.02;77.31;97908.51;1729919;80;20474;-64
2021/03/10 14:24:53;;;;;;;;;;;;;;;2.07;77.74;97908.25;1776681;80;20558;-62
2021/03/10 14:27:21;;;;;;;;;;;;;;;2.11;77.42;97899.59;1736619;80;20782;-65
2021/03/10 14:29:49;;;;;;;;;;;;;;;2.10;76.62;97903.17;1764826;79;21963;-65
2021/03/10 14:32:18;;;;;;;;;;;;;;;2.09;76.75;97905.48;1745706;80;20488;-64
2021/03/10 14:34:46;;;;;;;;;;;;;;;2.04;77.15;97906.02;1730695;81;20496;-70
2021/03/10 14:37:15;;;;;;;;;;;;;;;2.03;77.60;97903.61;1777033;79;20562;-65
2021/03/10 14:39:43;;;;;;;;;;;;;;;2.00;78.04;97910.48;1726669;81;20571;-64
2021/03/10 14:42:11;;;;;;;;;;;;;;;1.98;78.41;97907.26;1763323;79;21960;-63
2021/03/10 14:44:41;;;;;;;;;;;;;;;1.95;78.77;97906.63;1751939;80;20513;-66
2021/03/10 14:47:10;;;;;;;;;;;;;;;1.92;78.68;97908.32;1740229;81;20390;-63
2021/03/10 14:49:38;;;;;;;;;;;;;;;1.95;78.28;97907.13;1722935;81;20796;-62
2021/03/10 14:52:06;;;;;;;;;;;;;;;2.00;78.65;97910.48;1731608;80;20625;-66
2021/03/10 14:54:34;;;;;;;;;;;;;;;1.99;78.80;97912.27;1758392;80;21970;-65
2021/03/10 14:57:03;;;;;;;;;;;;;;;2.00;78.72;97913.07;1730669;80;20577;-62
2021/03/10 14:59:31;;;;;;;;;;;;;;;2.00;79.07;97908.69;1749445;80;20527;-62
2021/03/10 15:01:59;;;;;;;;;;;;;;;2.00;79.35;97916.47;1752939;80;20581;-66
2021/03/10 15:04:27;;;;;;;;;;;;;;;1.96;79.48;97917.80;1759660;80;20651;-62
